sensor_id;sensor_type;location;lat;lon;timestamp;pressure;altitude;pressure_sealevel;temperature;humidity
70053;BME280;57398;52.032;4.376;2023-07-13T00:02:00;102146.72;;;17.12;nan
70053;BME280;57398;52.032;4.376;2023-07-13T00:04:50;102162.50;;;17.12;nan
70053;BME280;57398;52.032;4.376;2023-07-13T00:07:39;102143.63;;;17.15;nan
70053;BME280;57398;52.032;4.376;2023-07-13T00:10:27;102135.06;;;17.20;nan
70053;BME280;57398;52.032;4.376;2023-07-13T00:13:16;102139.75;;;17.17;nan
70053;BME280;57398;52.032;4.376;2023-07-13T00:16:05;102180.19;;;17.16;nan
70053;BME280;57398;52.032;4.376;2023-07-13T00:18:53;102156.78;;;17.15;nan
70053;BME280;57398;52.032;4.376;2023-07-13T00:21:43;102170.69;;;17.15;nan
70053;BME280;57398;52.032;4.376;2023-07-13T00:24:32;102132.69;;;17.18;nan
70053;BME280;57398;52.032;4.376;2023-07-13T00:27:21;102091.13;;;17.15;nan
70053;BME280;57398;52.032;4.376;2023-07-13T00:32:59;102069.56;;;17.13;nan
70053;BME280;57398;52.032;4.376;2023-07-13T00:36:04;102012.63;;;17.13;nan
70053;BME280;57398;52.032;4.376;2023-07-13T00:38:53;101996.59;;;17.15;nan
70053;BME280;57398;52.032;4.376;2023-07-13T00:41:42;101833.84;;;16.29;nan
70053;BME280;57398;52.032;4.376;2023-07-13T00:44:31;101905.34;;;17.05;nan
70053;BME280;57398;52.032;4.376;2023-07-13T00:47:20;101856.09;;;16.95;nan
70053;BME280;57398;52.032;4.376;2023-07-13T00:50:11;101834.97;;;16.90;nan
70053;BME280;57398;52.032;4.376;2023-07-13T00:53:01;101823.84;;;16.83;nan
70053;BME280;57398;52.032;4.376;2023-07-13T00:55:53;101865.41;;;16.74;nan
70053;BME280;57398;52.032;4.376;2023-07-13T00:58:43;101952.31;;;16.66;nan
70053;BME280;57398;52.032;4.376;2023-07-13T01:01:31;102008.31;;;16.60;nan
70053;BME280;57398;52.032;4.376;2023-07-13T01:04:20;101932.19;;;15.73;nan
70053;BME280;57398;52.032;4.376;2023-07-13T01:07:08;102050.09;;;16.50;nan
70053;BME280;57398;52.032;4.376;2023-07-13T01:09:57;102037.41;;;16.47;nan
70053;BME280;57398;52.032;4.376;2023-07-13T01:12:47;102013.13;;;16.40;nan
70053;BME280;57398;52.032;4.376;2023-07-13T01:15:38;102012.81;;;16.36;nan
70053;BME280;57398;52.032;4.376;2023-07-13T01:21:17;101935.03;;;16.30;nan
70053;BME280;57398;52.032;4.376;2023-07-13T01:24:07;101999.13;;;16.22;nan
70053;BME280;57398;52.032;4.376;2023-07-13T01:26:55;102050.41;;;16.18;nan
70053;BME280;57398;52.032;4.376;2023-07-13T01:29:44;102071.25;;;16.13;nan
70053;BME280;57398;52.032;4.376;2023-07-13T01:32:34;102115.91;;;16.06;nan
70053;BME280;57398;52.032;4.376;2023-07-13T01:35:24;102117.75;;;16.06;nan
70053;BME280;57398;52.032;4.376;2023-07-13T01:38:18;102161.81;;;15.97;nan
70053;BME280;57398;52.032;4.376;2023-07-13T01:43:55;102159.06;;;15.92;nan
70053;BME280;57398;52.032;4.376;2023-07-13T01:46:44;102187.28;;;15.90;nan
70053;BME280;57398;52.032;4.376;2023-07-13T01:49:33;102158.31;;;15.85;nan
70053;BME280;57398;52.032;4.376;2023-07-13T01:52:21;102185.34;;;15.85;nan
70053;BME280;57398;52.032;4.376;2023-07-13T01:55:11;102158.75;;;15.82;nan
70053;BME280;57398;52.032;4.376;2023-07-13T01:58:01;102219.09;;;15.75;nan
70053;BME280;57398;52.032;4.376;2023-07-13T02:00:49;102254.19;;;15.74;nan
70053;BME280;57398;52.032;4.376;2023-07-13T02:03:39;102259.03;;;15.70;nan
70053;BME280;57398;52.032;4.376;2023-07-13T02:06:27;102236.47;;;15.69;nan
70053;BME280;57398;52.032;4.376;2023-07-13T02:09:16;102266.34;;;15.62;nan
70053;BME280;57398;52.032;4.376;2023-07-13T02:12:07;102254.50;;;15.59;nan
70053;BME280;57398;52.032;4.376;2023-07-13T02:14:55;102277.91;;;15.54;nan
70053;BME280;57398;52.032;4.376;2023-07-13T02:17:44;102306.94;;;15.53;nan
70053;BME280;57398;52.032;4.376;2023-07-13T02:23:21;102300.53;;;15.48;nan
70053;BME280;57398;52.032;4.376;2023-07-13T02:26:10;102318.94;;;15.42;nan
70053;BME280;57398;52.032;4.376;2023-07-13T02:29:00;102349.31;;;15.43;nan
70053;BME280;57398;52.032;4.376;2023-07-13T02:31:48;102373.31;;;15.40;nan
70053;BME280;57398;52.032;4.376;2023-07-13T02:34:37;102406.56;;;15.39;nan
70053;BME280;57398;52.032;4.376;2023-07-13T02:37:25;102427.72;;;15.38;nan
70053;BME280;57398;52.032;4.376;2023-07-13T02:40:14;102419.06;;;15.37;nan
70053;BME280;57398;52.032;4.376;2023-07-13T02:43:03;102445.66;;;15.34;nan
70053;BME280;57398;52.032;4.376;2023-07-13T02:45:53;102459.19;;;15.31;nan
70053;BME280;57398;52.032;4.376;2023-07-13T02:48:41;102493.41;;;15.29;nan
70053;BME280;57398;52.032;4.376;2023-07-13T02:51:30;102534.06;;;15.32;nan
70053;BME280;57398;52.032;4.376;2023-07-13T02:54:20;102491.81;;;15.28;nan
70053;BME280;57398;52.032;4.376;2023-07-13T02:57:08;102511.13;;;15.27;nan
70053;BME280;57398;52.032;4.376;2023-07-13T02:59:57;102507.53;;;15.28;nan
70053;BME280;57398;52.032;4.376;2023-07-13T03:02:47;102524.44;;;15.33;nan
70053;BME280;57398;52.032;4.376;2023-07-13T03:05:37;102540.75;;;15.35;nan
70053;BME280;57398;52.032;4.376;2023-07-13T03:08:26;102564.06;;;15.36;nan
70053;BME280;57398;52.032;4.376;2023-07-13T03:11:16;102569.53;;;15.35;nan
70053;BME280;57398;52.032;4.376;2023-07-13T03:14:05;102577.16;;;15.36;nan
70053;BME280;57398;52.032;4.376;2023-07-13T03:16:53;102567.69;;;15.42;nan
70053;BME280;57398;52.032;4.376;2023-07-13T03:19:43;102569.69;;;15.46;nan
70053;BME280;57398;52.032;4.376;2023-07-13T03:22:31;102550.09;;;15.56;nan
70053;BME280;57398;52.032;4.376;2023-07-13T03:25:20;102508.56;;;15.59;nan
70053;BME280;57398;52.032;4.376;2023-07-13T03:28:08;102489.00;;;15.62;nan
70053;BME280;57398;52.032;4.376;2023-07-13T03:33:49;102494.78;;;15.77;nan
70053;BME280;57398;52.032;4.376;2023-07-13T03:36:38;102497.41;;;15.77;nan
70053;BME280;57398;52.032;4.376;2023-07-13T03:39:27;102509.88;;;15.82;nan
70053;BME280;57398;52.032;4.376;2023-07-13T03:42:15;102514.31;;;15.81;nan
70053;BME280;57398;52.032;4.376;2023-07-13T03:45:05;102513.09;;;15.84;nan
70053;BME280;57398;52.032;4.376;2023-07-13T03:47:53;102525.97;;;15.85;nan
70053;BME280;57398;52.032;4.376;2023-07-13T03:50:41;102533.03;;;15.85;nan
70053;BME280;57398;52.032;4.376;2023-07-13T03:53:31;102550.78;;;15.83;nan
70053;BME280;57398;52.032;4.376;2023-07-13T03:56:20;102585.22;;;15.86;nan
70053;BME280;57398;52.032;4.376;2023-07-13T03:59:08;102595.88;;;15.91;nan
70053;BME280;57398;52.032;4.376;2023-07-13T04:01:56;102609.38;;;15.95;nan
70053;BME280;57398;52.032;4.376;2023-07-13T04:04:45;102622.22;;;16.03;nan
70053;BME280;57398;52.032;4.376;2023-07-13T04:07:33;102633.69;;;16.09;nan
70053;BME280;57398;52.032;4.376;2023-07-13T04:10:22;102641.53;;;16.16;nan
70053;BME280;57398;52.032;4.376;2023-07-13T04:13:11;102685.25;;;16.22;nan
70053;BME280;57398;52.032;4.376;2023-07-13T04:15:59;102688.22;;;16.32;nan
70053;BME280;57398;52.032;4.376;2023-07-13T04:18:49;102733.34;;;16.41;nan
70053;BME280;57398;52.032;4.376;2023-07-13T04:21:41;102735.53;;;16.44;nan
70053;BME280;57398;52.032;4.376;2023-07-13T04:24:29;102740.16;;;16.48;nan
70053;BME280;57398;52.032;4.376;2023-07-13T04:27:19;102747.41;;;16.53;nan
70053;BME280;57398;52.032;4.376;2023-07-13T04:30:10;102744.94;;;16.58;nan
70053;BME280;57398;52.032;4.376;2023-07-13T04:32:59;102742.09;;;16.60;nan
70053;BME280;57398;52.032;4.376;2023-07-13T04:35:47;102724.72;;;16.65;nan
70053;BME280;57398;52.032;4.376;2023-07-13T04:38:36;102703.47;;;16.73;nan
70053;BME280;57398;52.032;4.376;2023-07-13T04:41:24;102674.56;;;16.80;nan
70053;BME280;57398;52.032;4.376;2023-07-13T04:44:14;102672.09;;;16.85;nan
70053;BME280;57398;52.032;4.376;2023-07-13T04:47:02;102645.84;;;16.85;nan
70053;BME280;57398;52.032;4.376;2023-07-13T04:49:51;102634.13;;;16.88;nan
70053;BME280;57398;52.032;4.376;2023-07-13T04:52:39;102638.31;;;16.95;nan
70053;BME280;57398;52.032;4.376;2023-07-13T04:55:28;102650.78;;;17.00;nan
70053;BME280;57398;52.032;4.376;2023-07-13T04:58:17;102647.50;;;17.05;nan
70053;BME280;57398;52.032;4.376;2023-07-13T05:01:07;102605.25;;;17.06;nan
70053;BME280;57398;52.032;4.376;2023-07-13T05:03:57;102566.84;;;17.12;nan
70053;BME280;57398;52.032;4.376;2023-07-13T05:06:47;102565.13;;;17.17;nan
70053;BME280;57398;52.032;4.376;2023-07-13T05:09:35;102519.09;;;17.33;nan
70053;BME280;57398;52.032;4.376;2023-07-13T05:12:24;102481.88;;;17.36;nan
70053;BME280;57398;52.032;4.376;2023-07-13T05:15:12;102475.50;;;17.44;nan
70053;BME280;57398;52.032;4.376;2023-07-13T05:18:02;102430.28;;;17.42;nan
70053;BME280;57398;52.032;4.376;2023-07-13T05:20:58;102418.75;;;17.43;nan
70053;BME280;57398;52.032;4.376;2023-07-13T05:23:47;102418.06;;;17.48;nan
70053;BME280;57398;52.032;4.376;2023-07-13T05:26:35;102387.66;;;17.52;nan
70053;BME280;57398;52.032;4.376;2023-07-13T05:29:23;102392.72;;;17.53;nan
70053;BME280;57398;52.032;4.376;2023-07-13T05:32:12;102382.56;;;17.57;nan
70053;BME280;57398;52.032;4.376;2023-07-13T05:37:49;102307.81;;;17.76;nan
70053;BME280;57398;52.032;4.376;2023-07-13T05:43:26;102168.94;;;17.97;nan
70053;BME280;57398;52.032;4.376;2023-07-13T05:46:15;102104.56;;;17.99;nan
70053;BME280;57398;52.032;4.376;2023-07-13T05:49:03;102057.41;;;17.93;nan
70053;BME280;57398;52.032;4.376;2023-07-13T05:51:53;102054.31;;;17.96;nan
70053;BME280;57398;52.032;4.376;2023-07-13T05:54:41;102007.53;;;17.98;nan
70053;BME280;57398;52.032;4.376;2023-07-13T05:57:30;101948.56;;;18.11;nan
70053;BME280;57398;52.032;4.376;2023-07-13T06:00:19;101903.06;;;18.10;nan
70053;BME280;57398;52.032;4.376;2023-07-13T06:03:07;101842.16;;;18.18;nan
70053;BME280;57398;52.032;4.376;2023-07-13T06:05:55;101816.09;;;18.39;nan
70053;BME280;57398;52.032;4.376;2023-07-13T06:08:45;101770.09;;;18.14;nan
70053;BME280;57398;52.032;4.376;2023-07-13T06:11:34;101758.94;;;18.07;nan
70053;BME280;57398;52.032;4.376;2023-07-13T06:14:22;101787.63;;;18.09;nan
70053;BME280;57398;52.032;4.376;2023-07-13T06:17:10;101782.53;;;18.02;nan
70053;BME280;57398;52.032;4.376;2023-07-13T06:19:59;101756.81;;;18.04;nan
70053;BME280;57398;52.032;4.376;2023-07-13T06:22:48;101768.22;;;17.93;nan
70053;BME280;57398;52.032;4.376;2023-07-13T06:25:37;101779.78;;;18.14;nan
70053;BME280;57398;52.032;4.376;2023-07-13T06:28:26;101781.50;;;18.52;nan
70053;BME280;57398;52.032;4.376;2023-07-13T06:31:14;101675.28;;;18.58;nan
70053;BME280;57398;52.032;4.376;2023-07-13T06:34:03;101682.63;;;18.89;nan
70053;BME280;57398;52.032;4.376;2023-07-13T06:36:51;101586.53;;;18.86;nan
70053;BME280;57398;52.032;4.376;2023-07-13T06:39:40;101553.50;;;18.73;nan
70053;BME280;57398;52.032;4.376;2023-07-13T06:42:29;101589.00;;;18.66;nan
70053;BME280;57398;52.032;4.376;2023-07-13T06:45:17;101628.69;;;18.59;nan
70053;BME280;57398;52.032;4.376;2023-07-13T06:48:06;101631.09;;;18.28;nan
70053;BME280;57398;52.032;4.376;2023-07-13T06:50:55;101680.31;;;18.33;nan
70053;BME280;57398;52.032;4.376;2023-07-13T06:53:43;101692.34;;;18.56;nan
70053;BME280;57398;52.032;4.376;2023-07-13T06:56:31;101652.72;;;18.68;nan
70053;BME280;57398;52.032;4.376;2023-07-13T06:59:21;101621.78;;;18.85;nan
70053;BME280;57398;52.032;4.376;2023-07-13T07:02:10;101576.94;;;19.17;nan
70053;BME280;57398;52.032;4.376;2023-07-13T07:07:48;101409.69;;;19.35;nan
70053;BME280;57398;52.032;4.376;2023-07-13T07:10:38;101479.44;;;18.97;nan
70053;BME280;57398;52.032;4.376;2023-07-13T07:13:26;101511.34;;;18.58;nan
70053;BME280;57398;52.032;4.376;2023-07-13T07:16:18;101598.91;;;18.16;nan
70053;BME280;57398;52.032;4.376;2023-07-13T07:19:07;101647.91;;;18.27;nan
70053;BME280;57398;52.032;4.376;2023-07-13T07:21:55;101649.78;;;18.64;nan
70053;BME280;57398;52.032;4.376;2023-07-13T07:27:32;101544.59;;;18.74;nan
70053;BME280;57398;52.032;4.376;2023-07-13T07:30:23;101506.56;;;19.02;nan
70053;BME280;57398;52.032;4.376;2023-07-13T07:33:16;101500.72;;;18.90;nan
70053;BME280;57398;52.032;4.376;2023-07-13T07:36:04;101475.00;;;19.23;nan
70053;BME280;57398;52.032;4.376;2023-07-13T07:38:55;101493.75;;;19.42;nan
70053;BME280;57398;52.032;4.376;2023-07-13T07:41:44;101474.41;;;18.95;nan
70053;BME280;57398;52.032;4.376;2023-07-13T07:44:41;101496.91;;;19.34;nan
70053;BME280;57398;52.032;4.376;2023-07-13T07:47:29;101486.91;;;19.51;nan
70053;BME280;57398;52.032;4.376;2023-07-13T07:53:10;101504.94;;;18.91;nan
70053;BME280;57398;52.032;4.376;2023-07-13T07:55:59;101525.00;;;19.08;nan
70053;BME280;57398;52.032;4.376;2023-07-13T08:33:02;101516.84;;;19.04;nan
70053;BME280;57398;52.032;4.376;2023-07-13T08:35:51;101446.31;;;19.37;nan
70053;BME280;57398;52.032;4.376;2023-07-13T08:38:39;101481.38;;;19.48;nan
70053;BME280;57398;52.032;4.376;2023-07-13T08:41:29;101455.00;;;19.37;nan
70053;BME280;57398;52.032;4.376;2023-07-13T08:44:22;101437.63;;;19.67;nan
70053;BME280;57398;52.032;4.376;2023-07-13T09:24:28;101281.41;;;20.71;nan
70053;BME280;57398;52.032;4.376;2023-07-13T09:30:22;101319.59;;;21.47;nan
70053;BME280;57398;52.032;4.376;2023-07-13T09:33:13;101293.94;;;20.89;nan
70053;BME280;57398;52.032;4.376;2023-07-13T09:42:01;101340.56;;;22.54;nan
70053;BME280;57398;52.032;4.376;2023-07-13T09:44:54;101330.63;;;22.65;nan
70053;BME280;57398;52.032;4.376;2023-07-13T09:47:42;101333.88;;;22.18;nan
70053;BME280;57398;52.032;4.376;2023-07-13T09:50:32;101278.25;;;20.19;nan
70053;BME280;57398;52.032;4.376;2023-07-13T09:53:21;101292.69;;;21.11;nan
70053;BME280;57398;52.032;4.376;2023-07-13T09:59:18;101326.91;;;20.53;nan
70053;BME280;57398;52.032;4.376;2023-07-13T10:02:22;101294.06;;;20.74;nan
70053;BME280;57398;52.032;4.376;2023-07-13T10:05:14;101319.25;;;20.51;nan
70053;BME280;57398;52.032;4.376;2023-07-13T10:08:05;101294.47;;;20.47;nan
70053;BME280;57398;52.032;4.376;2023-07-13T10:10:58;101334.16;;;22.17;nan
70053;BME280;57398;52.032;4.376;2023-07-13T10:13:51;101388.00;;;22.88;nan
70053;BME280;57398;52.032;4.376;2023-07-13T10:16:42;101337.09;;;21.38;nan
70053;BME280;57398;52.032;4.376;2023-07-13T10:19:34;101319.91;;;21.11;nan
70053;BME280;57398;52.032;4.376;2023-07-13T10:22:29;101317.56;;;20.70;nan
70053;BME280;57398;52.032;4.376;2023-07-13T10:25:22;101329.63;;;21.16;nan
70053;BME280;57398;52.032;4.376;2023-07-13T10:28:28;101347.69;;;21.38;nan
70053;BME280;57398;52.032;4.376;2023-07-13T10:31:19;101309.41;;;20.12;nan
70053;BME280;57398;52.032;4.376;2023-07-13T10:34:09;101328.94;;;20.16;nan
70053;BME280;57398;52.032;4.376;2023-07-13T10:37:00;101320.28;;;20.00;nan
70053;BME280;57398;52.032;4.376;2023-07-13T10:39:50;101331.25;;;20.28;nan
70053;BME280;57398;52.032;4.376;2023-07-13T10:42:44;101332.81;;;20.29;nan
70053;BME280;57398;52.032;4.376;2023-07-13T10:48:23;101330.09;;;19.79;nan
70053;BME280;57398;52.032;4.376;2023-07-13T10:51:14;101382.69;;;20.25;nan
70053;BME280;57398;52.032;4.376;2023-07-13T10:54:18;101342.44;;;20.64;nan
70053;BME280;57398;52.032;4.376;2023-07-13T10:57:16;101355.94;;;20.97;nan
70053;BME280;57398;52.032;4.376;2023-07-13T11:00:15;101348.56;;;20.94;nan
70053;BME280;57398;52.032;4.376;2023-07-13T11:03:04;101368.22;;;21.75;nan
70053;BME280;57398;52.032;4.376;2023-07-13T11:06:08;101429.19;;;22.80;nan
70053;BME280;57398;52.032;4.376;2023-07-13T11:11:46;101438.84;;;22.28;nan
70053;BME280;57398;52.032;4.376;2023-07-13T11:23:30;101468.13;;;22.37;nan
70053;BME280;57398;52.032;4.376;2023-07-13T11:26:39;101436.25;;;21.70;nan
70053;BME280;57398;52.032;4.376;2023-07-13T11:29:36;101458.38;;;22.32;nan
70053;BME280;57398;52.032;4.376;2023-07-13T11:32:31;101464.97;;;22.59;nan
70053;BME280;57398;52.032;4.376;2023-07-13T11:35:23;101456.50;;;22.38;nan
70053;BME280;57398;52.032;4.376;2023-07-13T11:38:16;101441.16;;;22.06;nan
70053;BME280;57398;52.032;4.376;2023-07-13T11:41:10;101409.47;;;21.77;nan
70053;BME280;57398;52.032;4.376;2023-07-13T11:44:07;101426.63;;;22.08;nan
70053;BME280;57398;52.032;4.376;2023-07-13T11:47:00;101461.38;;;22.50;nan
70053;BME280;57398;52.032;4.376;2023-07-13T11:49:53;101432.13;;;22.12;nan
70053;BME280;57398;52.032;4.376;2023-07-13T11:52:44;101461.88;;;22.52;nan
70053;BME280;57398;52.032;4.376;2023-07-13T11:55:38;101527.72;;;22.83;nan
70053;BME280;57398;52.032;4.376;2023-07-13T11:58:27;101496.16;;;22.62;nan
70053;BME280;57398;52.032;4.376;2023-07-13T12:01:19;101481.38;;;22.61;nan
70053;BME280;57398;52.032;4.376;2023-07-13T12:04:20;101485.09;;;22.79;nan
70053;BME280;57398;52.032;4.376;2023-07-13T12:07:15;101454.13;;;22.36;nan
70053;BME280;57398;52.032;4.376;2023-07-13T12:10:17;101437.13;;;21.60;nan
70053;BME280;57398;52.032;4.376;2023-07-13T12:13:09;101464.91;;;21.87;nan
70053;BME280;57398;52.032;4.376;2023-07-13T12:15:59;101472.00;;;22.21;nan
70053;BME280;57398;52.032;4.376;2023-07-13T12:18:48;101472.84;;;21.87;nan
70053;BME280;57398;52.032;4.376;2023-07-13T12:21:38;101520.38;;;22.74;nan
70053;BME280;57398;52.032;4.376;2023-07-13T12:24:27;101489.69;;;22.25;nan
70053;BME280;57398;52.032;4.376;2023-07-13T12:27:20;101492.75;;;22.37;nan
70053;BME280;57398;52.032;4.376;2023-07-13T12:30:24;101429.53;;;21.48;nan
70053;BME280;57398;52.032;4.376;2023-07-13T12:33:13;101414.81;;;21.03;nan
70053;BME280;57398;52.032;4.376;2023-07-13T12:36:05;101427.28;;;21.95;nan
70053;BME280;57398;52.032;4.376;2023-07-13T12:38:54;101447.88;;;21.69;nan
70053;BME280;57398;52.032;4.376;2023-07-13T12:41:42;101420.78;;;21.82;nan
70053;BME280;57398;52.032;4.376;2023-07-13T12:44:33;101417.94;;;21.73;nan
70053;BME280;57398;52.032;4.376;2023-07-13T12:47:24;101394.78;;;20.97;nan
70053;BME280;57398;52.032;4.376;2023-07-13T12:50:15;101408.72;;;21.37;nan
70053;BME280;57398;52.032;4.376;2023-07-13T12:53:06;101430.63;;;21.47;nan
70053;BME280;57398;52.032;4.376;2023-07-13T12:56:00;101480.31;;;22.38;nan
70053;BME280;57398;52.032;4.376;2023-07-13T12:58:54;101463.34;;;22.10;nan
70053;BME280;57398;52.032;4.376;2023-07-13T13:01:46;101453.53;;;21.86;nan
70053;BME280;57398;52.032;4.376;2023-07-13T13:04:39;101429.38;;;21.69;nan
70053;BME280;57398;52.032;4.376;2023-07-13T13:07:29;101472.09;;;22.58;nan
70053;BME280;57398;52.032;4.376;2023-07-13T13:10:18;101467.03;;;22.14;nan
70053;BME280;57398;52.032;4.376;2023-07-13T13:13:08;101464.41;;;21.85;nan
70053;BME280;57398;52.032;4.376;2023-07-13T13:16:01;101444.72;;;21.67;nan
70053;BME280;57398;52.032;4.376;2023-07-13T13:18:55;101455.50;;;20.97;nan
70053;BME280;57398;52.032;4.376;2023-07-13T13:21:47;101445.69;;;21.02;nan
70053;BME280;57398;52.032;4.376;2023-07-13T13:24:37;101500.22;;;22.30;nan
70053;BME280;57398;52.032;4.376;2023-07-13T13:27:25;101462.81;;;21.54;nan
70053;BME280;57398;52.032;4.376;2023-07-13T13:30:16;101489.81;;;22.63;nan
70053;BME280;57398;52.032;4.376;2023-07-13T13:33:08;101493.63;;;21.69;nan
70053;BME280;57398;52.032;4.376;2023-07-13T13:38:47;101497.69;;;21.57;nan
70053;BME280;57398;52.032;4.376;2023-07-13T13:41:35;101507.63;;;22.04;nan
70053;BME280;57398;52.032;4.376;2023-07-13T13:44:24;101528.00;;;22.57;nan
70053;BME280;57398;52.032;4.376;2023-07-13T13:47:29;101524.13;;;22.20;nan
70053;BME280;57398;52.032;4.376;2023-07-13T13:50:21;101568.97;;;22.89;nan
70053;BME280;57398;52.032;4.376;2023-07-13T13:53:12;101543.03;;;22.86;nan
70053;BME280;57398;52.032;4.376;2023-07-13T13:56:04;101598.19;;;23.27;nan
70053;BME280;57398;52.032;4.376;2023-07-13T13:58:55;101581.28;;;23.60;nan
70053;BME280;57398;52.032;4.376;2023-07-13T14:01:46;101601.41;;;23.05;nan
70053;BME280;57398;52.032;4.376;2023-07-13T14:04:35;101626.47;;;23.12;nan
70053;BME280;57398;52.032;4.376;2023-07-13T14:07:24;101611.16;;;23.09;nan
70053;BME280;57398;52.032;4.376;2023-07-13T14:10:15;101580.50;;;22.98;nan
70053;BME280;57398;52.032;4.376;2023-07-13T14:13:03;101497.78;;;21.75;nan
70053;BME280;57398;52.032;4.376;2023-07-13T14:18:43;101552.22;;;22.45;nan
70053;BME280;57398;52.032;4.376;2023-07-13T14:21:32;101529.25;;;22.41;nan
70053;BME280;57398;52.032;4.376;2023-07-13T14:24:23;101495.97;;;21.42;nan
70053;BME280;57398;52.032;4.376;2023-07-13T14:27:12;101508.19;;;21.96;nan
70053;BME280;57398;52.032;4.376;2023-07-13T14:30:08;101503.88;;;22.05;nan
70053;BME280;57398;52.032;4.376;2023-07-13T14:33:00;101452.78;;;20.62;nan
70053;BME280;57398;52.032;4.376;2023-07-13T14:35:49;101478.56;;;21.70;nan
70053;BME280;57398;52.032;4.376;2023-07-13T14:38:39;101506.38;;;22.26;nan
70053;BME280;57398;52.032;4.376;2023-07-13T14:44:20;101591.28;;;22.83;nan
70053;BME280;57398;52.032;4.376;2023-07-13T14:47:10;101570.44;;;22.52;nan
70053;BME280;57398;52.032;4.376;2023-07-13T14:49:58;101544.41;;;22.01;nan
70053;BME280;57398;52.032;4.376;2023-07-13T14:52:47;101466.38;;;21.74;nan
70053;BME280;57398;52.032;4.376;2023-07-13T14:55:36;101495.38;;;22.37;nan
70053;BME280;57398;52.032;4.376;2023-07-13T14:58:24;101472.78;;;21.92;nan
70053;BME280;57398;52.032;4.376;2023-07-13T15:04:04;101517.41;;;22.04;nan
70053;BME280;57398;52.032;4.376;2023-07-13T15:06:54;101459.03;;;21.66;nan
70053;BME280;57398;52.032;4.376;2023-07-13T15:09:43;101493.03;;;22.07;nan
70053;BME280;57398;52.032;4.376;2023-07-13T15:12:32;101529.72;;;22.91;nan
70053;BME280;57398;52.032;4.376;2023-07-13T15:15:20;101512.84;;;22.09;nan
70053;BME280;57398;52.032;4.376;2023-07-13T15:18:12;101512.09;;;22.33;nan
70053;BME280;57398;52.032;4.376;2023-07-13T15:21:01;101524.44;;;22.67;nan
70053;BME280;57398;52.032;4.376;2023-07-13T15:26:39;101595.34;;;23.61;nan
70053;BME280;57398;52.032;4.376;2023-07-13T15:29:32;101565.31;;;22.85;nan
70053;BME280;57398;52.032;4.376;2023-07-13T15:38:12;101638.97;;;23.50;nan
70053;BME280;57398;52.032;4.376;2023-07-13T15:41:04;101645.28;;;23.11;nan
70053;BME280;57398;52.032;4.376;2023-07-13T15:44:00;101557.66;;;22.59;nan
70053;BME280;57398;52.032;4.376;2023-07-13T15:49:42;101616.53;;;23.23;nan
70053;BME280;57398;52.032;4.376;2023-07-13T15:52:32;101573.88;;;21.89;nan
70053;BME280;57398;52.032;4.376;2023-07-13T15:55:23;101547.31;;;22.33;nan
70053;BME280;57398;52.032;4.376;2023-07-13T15:58:12;101532.28;;;22.53;nan
70053;BME280;57398;52.032;4.376;2023-07-13T16:01:02;101553.63;;;22.86;nan
70053;BME280;57398;52.032;4.376;2023-07-13T16:03:51;101615.72;;;22.74;nan
70053;BME280;57398;52.032;4.376;2023-07-13T16:12:18;101538.69;;;21.88;nan
70053;BME280;57398;52.032;4.376;2023-07-13T16:15:12;101604.94;;;22.42;nan
70053;BME280;57398;52.032;4.376;2023-07-13T16:18:01;101650.47;;;22.73;nan
70053;BME280;57398;52.032;4.376;2023-07-13T16:20:51;101647.09;;;22.62;nan
70053;BME280;57398;52.032;4.376;2023-07-13T16:26:52;101638.25;;;22.48;nan
70053;BME280;57398;52.032;4.376;2023-07-13T16:32:32;101629.97;;;22.25;nan
70053;BME280;57398;52.032;4.376;2023-07-13T16:35:21;101597.09;;;21.92;nan
70053;BME280;57398;52.032;4.376;2023-07-13T16:38:14;101604.66;;;21.74;nan
70053;BME280;57398;52.032;4.376;2023-07-13T16:41:04;101630.94;;;22.34;nan
70053;BME280;57398;52.032;4.376;2023-07-13T16:43:57;101663.94;;;22.47;nan
70053;BME280;57398;52.032;4.376;2023-07-13T16:46:46;101637.53;;;22.37;nan
70053;BME280;57398;52.032;4.376;2023-07-13T16:49:37;101658.44;;;22.38;nan
70053;BME280;57398;52.032;4.376;2023-07-13T16:52:25;101608.41;;;22.03;nan
70053;BME280;57398;52.032;4.376;2023-07-13T16:55:15;101686.41;;;22.50;nan
70053;BME280;57398;52.032;4.376;2023-07-13T16:58:05;101730.19;;;22.37;nan
70053;BME280;57398;52.032;4.376;2023-07-13T17:00:55;101665.41;;;21.90;nan
70053;BME280;57398;52.032;4.376;2023-07-13T17:03:43;101679.41;;;21.90;nan
70053;BME280;57398;52.032;4.376;2023-07-13T17:06:32;101643.63;;;21.98;nan
70053;BME280;57398;52.032;4.376;2023-07-13T17:09:21;101681.88;;;21.77;nan
70053;BME280;57398;52.032;4.376;2023-07-13T17:12:10;101702.09;;;22.02;nan
70053;BME280;57398;52.032;4.376;2023-07-13T17:15:01;101680.38;;;22.05;nan
70053;BME280;57398;52.032;4.376;2023-07-13T17:17:57;101697.19;;;21.80;nan
70053;BME280;57398;52.032;4.376;2023-07-13T17:20:57;101634.31;;;21.66;nan
70053;BME280;57398;52.032;4.376;2023-07-13T17:23:45;101598.75;;;21.43;nan
70053;BME280;57398;52.032;4.376;2023-07-13T17:26:34;101577.88;;;21.37;nan
70053;BME280;57398;52.032;4.376;2023-07-13T17:29:22;101588.41;;;21.52;nan
70053;BME280;57398;52.032;4.376;2023-07-13T17:32:17;101596.81;;;21.59;nan
70053;BME280;57398;52.032;4.376;2023-07-13T17:35:17;101577.16;;;21.26;nan
70053;BME280;57398;52.032;4.376;2023-07-13T17:38:07;101574.97;;;21.38;nan
70053;BME280;57398;52.032;4.376;2023-07-13T17:40:59;101579.91;;;21.55;nan
70053;BME280;57398;52.032;4.376;2023-07-13T17:43:48;101591.38;;;21.30;nan
70053;BME280;57398;52.032;4.376;2023-07-13T17:49:27;101586.59;;;21.42;nan
70053;BME280;57398;52.032;4.376;2023-07-13T17:52:21;101589.25;;;21.32;nan
70053;BME280;57398;52.032;4.376;2023-07-13T17:55:16;101561.91;;;21.02;nan
70053;BME280;57398;52.032;4.376;2023-07-13T18:00:55;101667.91;;;20.70;nan